Time;durP1;ratioP1;P1;durP2;ratioP2;P2;SDS_P1;SDS_P2;PMS_P1;PMS_P2;Temp;Humidity;BMP_temperature;BMP_pressure;BME280_temperature;BME280_humidity;BME280_pressure;Samples;Min_cycle;Max_cycle;Signal;HPM_P1;HPM_P2
2023/01/27 00:01:07;;;;;;;22.63;11.70;;;-0.70;99.90;;;;;;5015648;28;20033;-69
2023/01/27 00:03:35;;;;;;;23.85;12.23;;;-0.70;99.90;;;;;;5030864;28;20080;-69
2023/01/27 00:06:03;;;;;;;33.17;12.73;;;-0.70;99.90;;;;;;5008599;28;20137;-69
2023/01/27 00:08:30;;;;;;;23.45;12.38;;;-0.70;99.90;;;;;;4990456;28;20050;-69
2023/01/27 00:13:49;;;;;;;26.50;12.95;;;-0.80;99.90;;;;;;4990811;28;20046;-69
2023/01/27 00:16:17;;;;;;;25.95;12.80;;;-0.90;99.90;;;;;;5008791;28;20354;-69
2023/01/27 00:18:44;;;;;;;26.50;12.38;;;-0.80;99.90;;;;;;4992963;28;20429;-69
2023/01/27 00:26:43;;;;;;;21.05;11.18;;;-0.80;99.90;;;;;;4992985;28;20583;-69
2023/01/27 00:29:11;;;;;;;23.60;12.13;;;-0.80;99.90;;;;;;4989570;28;20092;-69
2023/01/27 00:34:24;;;;;;;22.85;11.32;;;-0.90;99.90;;;;;;5009160;28;20054;-69
2023/01/27 00:36:52;;;;;;;22.38;11.82;;;-0.90;99.90;;;;;;4976425;28;20519;-69
2023/01/27 00:39:19;;;;;;;23.75;12.07;;;-0.80;99.90;;;;;;5008991;28;20509;-69
2023/01/27 00:41:46;;;;;;;26.35;12.13;;;-0.80;99.90;;;;;;5008362;28;20050;-69
2023/01/27 00:44:14;;;;;;;24.40;12.23;;;-0.80;99.90;;;;;;5009260;28;20104;-69
2023/01/27 00:46:41;;;;;;;26.80;13.15;;;-0.80;99.90;;;;;;4991838;28;20133;-69
2023/01/27 00:49:09;;;;;;;24.52;13.15;;;-0.80;99.90;;;;;;5009110;28;20046;-69
2023/01/27 00:51:37;;;;;;;26.33;12.52;;;-0.80;99.90;;;;;;4990035;28;20073;-71
2023/01/27 00:54:04;;;;;;;25.40;13.10;;;-0.70;99.90;;;;;;4991271;28;20065;-69
2023/01/27 00:56:32;;;;;;;26.17;13.43;;;-0.70;99.90;;;;;;5006384;28;20133;-69
2023/01/27 00:58:59;;;;;;;26.65;13.55;;;-0.70;99.90;;;;;;5009573;28;20072;-69
2023/01/27 01:01:27;;;;;;;28.45;14.15;;;-0.60;99.90;;;;;;5007698;28;20126;-69
2023/01/27 01:03:57;;;;;;;29.58;13.80;;;-0.70;99.90;;;;;;5030618;28;20385;-69
2023/01/27 01:06:26;;;;;;;28.52;13.90;;;-0.70;99.90;;;;;;4982669;28;20046;-69
2023/01/27 01:08:56;;;;;;;28.15;14.05;;;-0.70;99.90;;;;;;5011586;28;20065;-69
2023/01/27 01:11:24;;;;;;;27.73;14.45;;;-0.70;99.90;;;;;;5017254;28;20068;-69
2023/01/27 01:13:51;;;;;;;29.63;14.32;;;-0.60;99.90;;;;;;4992897;28;20460;-69
2023/01/27 01:16:23;;;;;;;27.50;14.18;;;-0.60;99.90;;;;;;4990959;28;20046;-69
2023/01/27 01:18:50;;;;;;;27.70;14.88;;;-0.60;99.90;;;;;;4989902;28;20077;-69
2023/01/27 01:21:20;;;;;;;26.70;14.68;;;-0.60;99.90;;;;;;4990678;28;20514;-68
2023/01/27 01:23:47;;;;;;;25.98;13.80;;;-0.60;99.90;;;;;;5005970;28;20045;-67
2023/01/27 01:26:15;;;;;;;27.98;13.40;;;-0.50;99.90;;;;;;5030521;28;20508;-68
2023/01/27 01:28:44;;;;;;;25.35;14.05;;;-0.60;99.90;;;;;;5019855;28;20464;-68
2023/01/27 01:31:17;;;;;;;29.65;14.38;;;-0.60;99.90;;;;;;5029371;28;20553;-68
2023/01/27 01:33:46;;;;;;;25.02;13.05;;;-0.60;99.90;;;;;;5023853;28;20454;-68
2023/01/27 01:36:16;;;;;;;28.58;14.00;;;-0.60;99.90;;;;;;5013414;28;20085;-68
2023/01/27 01:38:44;;;;;;;26.83;13.43;;;-0.50;99.90;;;;;;5027728;28;20140;-68
2023/01/27 01:41:19;;;;;;;27.00;13.95;;;-0.60;99.90;;;;;;5029613;28;20041;-68
2023/01/27 01:43:48;;;;;;;31.10;14.82;;;-0.50;99.90;;;;;;5029080;28;20484;-67
2023/01/27 01:46:16;;;;;;;30.63;14.93;;;-0.60;99.90;;;;;;5023351;28;20417;-68
2023/01/27 01:49:00;;;;;;;26.60;13.77;;;-0.50;99.90;;;;;;4993601;28;20050;-68
2023/01/27 01:51:43;;;;;;;27.40;13.80;;;-0.60;99.90;;;;;;4989578;28;20118;-68
2023/01/27 01:54:20;;;;;;;27.30;14.25;;;-0.50;99.90;;;;;;5029916;28;20057;-68
2023/01/27 01:56:54;;;;;;;28.42;13.40;;;-0.50;99.90;;;;;;5012206;28;20084;-68
2023/01/27 01:59:35;;;;;;;25.63;13.40;;;-0.50;99.90;;;;;;5027190;28;20045;-68
2023/01/27 02:02:06;;;;;;;27.10;12.88;;;-0.60;99.90;;;;;;5029514;28;20128;-68
2023/01/27 02:04:42;;;;;;;;;;;-0.60;99.90;;;;;;5028862;28;20037;-68
2023/01/27 02:07:38;;;;;;;30.83;14.73;;;-0.60;99.90;;;;;;5027642;28;20275;-68
2023/01/27 02:10:06;;;;;;;30.08;14.95;;;-0.60;99.90;;;;;;5026371;28;20073;-68
2023/01/27 02:12:34;;;;;;;29.90;13.93;;;-0.50;99.90;;;;;;5021418;28;20598;-68
2023/01/27 02:15:06;;;;;;;31.90;15.10;;;-0.50;99.90;;;;;;5025163;28;20044;-68
2023/01/27 02:17:34;;;;;;;30.83;15.07;;;-0.60;99.90;;;;;;5012956;28;20049;-68
2023/01/27 02:20:04;;;;;;;29.45;14.93;;;-0.60;99.90;;;;;;5027567;28;20053;-68
2023/01/27 02:22:50;;;;;;;31.38;14.98;;;-0.60;99.90;;;;;;5016896;28;20451;-68
2023/01/27 02:25:20;;;;;;;30.02;16.00;;;-0.60;99.90;;;;;;4992713;28;20049;-68
2023/01/27 02:27:48;;;;;;;38.03;17.95;;;-0.50;99.90;;;;;;5014249;28;20038;-68
2023/01/27 02:30:15;;;;;;;33.72;16.50;;;-0.60;99.90;;;;;;5027356;28;20404;-68
2023/01/27 02:32:43;;;;;;;33.10;15.63;;;-0.60;99.90;;;;;;5027821;28;20081;-68
2023/01/27 02:35:18;;;;;;;27.73;14.52;;;-0.50;99.90;;;;;;4975832;28;20485;-68
2023/01/27 02:37:48;;;;;;;33.22;16.75;;;-0.50;99.90;;;;;;4990537;28;20050;-68
2023/01/27 02:40:16;;;;;;;30.38;14.52;;;-0.50;99.90;;;;;;4991925;28;20129;-68
2023/01/27 02:42:43;;;;;;;37.83;17.02;;;-0.50;99.90;;;;;;5017915;28;20046;-68
2023/01/27 02:45:11;;;;;;;32.30;15.68;;;-0.50;99.90;;;;;;4996041;28;20053;-68
2023/01/27 02:47:39;;;;;;;32.83;16.33;;;-0.50;99.90;;;;;;5011266;28;20038;-68
2023/01/27 02:50:06;;;;;;;32.50;17.00;;;-0.50;99.90;;;;;;4980329;28;20046;-68
2023/01/27 02:52:34;;;;;;;39.72;15.65;;;-0.50;99.90;;;;;;5031405;28;20073;-68
2023/01/27 02:55:01;;;;;;;33.58;16.85;;;-0.40;99.90;;;;;;5014242;28;20476;-68
2023/01/27 02:57:29;;;;;;;36.28;16.55;;;-0.40;99.90;;;;;;4992353;28;20049;-68
2023/01/27 03:00:22;;;;;;;33.88;15.93;;;-0.40;99.90;;;;;;4984660;28;20314;-68
2023/01/27 03:02:50;;;;;;;33.42;15.40;;;-0.40;99.90;;;;;;4994627;28;20566;-68
2023/01/27 03:05:17;;;;;;;32.80;15.60;;;-0.40;99.90;;;;;;5015719;28;20056;-68
2023/01/27 03:07:44;;;;;;;35.22;17.10;;;-0.40;99.90;;;;;;5015067;28;20376;-68
2023/01/27 03:10:12;;;;;;;33.58;16.02;;;-0.40;99.90;;;;;;5014529;28;20034;-68
2023/01/27 03:12:39;;;;;;;36.83;17.00;;;-0.40;99.90;;;;;;5016426;28;20477;-68
2023/01/27 03:18:17;;;;;;;33.85;16.05;;;-0.40;99.90;;;;;;5024231;28;20473;-68
2023/01/27 03:20:47;;;;;;;29.27;14.35;;;-0.40;99.90;;;;;;5012252;28;20042;-68
2023/01/27 03:23:16;;;;;;;33.42;16.00;;;-0.30;99.90;;;;;;5030888;28;20471;-68
2023/01/27 03:25:48;;;;;;;33.80;16.17;;;-0.40;99.90;;;;;;5030649;28;20070;-68
2023/01/27 03:28:15;;;;;;;34.80;16.85;;;-0.40;99.90;;;;;;5020418;28;20100;-68
2023/01/27 03:30:48;;;;;;;30.10;15.35;;;-0.40;99.90;;;;;;4995702;28;20053;-68
2023/01/27 03:33:21;;;;;;;34.17;14.70;;;-0.40;99.90;;;;;;5020671;28;20099;-68
2023/01/27 03:47:02;;;;;;;31.13;14.63;;;-0.40;99.90;;;;;;5010517;28;20042;-69
2023/01/27 03:49:29;;;;;;;26.05;12.55;;;-0.30;99.90;;;;;;5010052;28;20038;-70
2023/01/27 03:51:57;;;;;;;31.42;14.93;;;-0.30;99.90;;;;;;5019168;28;20045;-70
2023/01/27 03:54:25;;;;;;;31.30;14.13;;;-0.30;99.90;;;;;;5011849;28;20084;-70
2023/01/27 03:56:52;;;;;;;28.90;14.73;;;-0.30;99.90;;;;;;5012045;28;20045;-71
2023/01/27 03:59:19;;;;;;;29.23;13.52;;;-0.30;99.90;;;;;;5011714;28;20054;-70
2023/01/27 04:01:46;;;;;;;27.35;13.80;;;-0.30;99.90;;;;;;5011418;28;20046;-71
2023/01/27 04:07:01;;;;;;;28.00;13.63;;;-0.30;99.90;;;;;;5022847;28;20178;-71
2023/01/27 04:09:32;;;;;;;28.85;13.77;;;-0.30;99.90;;;;;;5031314;28;20046;-71
2023/01/27 04:12:03;;;;;;;27.73;13.30;;;-0.30;99.90;;;;;;5010558;28;20046;-70
2023/01/27 04:14:31;;;;;;;23.95;11.98;;;-0.30;99.90;;;;;;5009886;28;20045;-70
2023/01/27 04:17:09;;;;;;;28.42;13.38;;;-0.30;99.90;;;;;;5017483;28;20053;-70
2023/01/27 04:19:37;;;;;;;26.60;13.38;;;-0.30;99.90;;;;;;5030289;28;20497;-71
2023/01/27 04:22:05;;;;;;;25.33;12.40;;;-0.30;99.90;;;;;;5012330;28;20435;-70
2023/01/27 04:24:33;;;;;;;25.38;12.20;;;-0.30;99.90;;;;;;5031021;28;20107;-70
2023/01/27 04:27:06;;;;;;;26.80;12.65;;;-0.30;99.90;;;;;;5029712;28;20370;-70
2023/01/27 04:29:39;;;;;;;25.98;12.57;;;-0.30;99.90;;;;;;5010705;28;20505;-70
2023/01/27 04:32:08;;;;;;;26.90;12.95;;;-0.40;99.90;;;;;;5015648;28;20069;-71
2023/01/27 04:34:37;;;;;;;23.38;11.05;;;-0.40;99.90;;;;;;5010966;28;20076;-70
2023/01/27 04:37:05;;;;;;;26.50;13.55;;;-0.40;99.90;;;;;;5019303;28;20045;-70
2023/01/27 04:39:33;;;;;;;23.73;12.50;;;-0.40;99.90;;;;;;5029949;28;20045;-70
2023/01/27 04:42:01;;;;;;;26.80;13.23;;;-0.40;99.90;;;;;;5009278;28;20041;-71
2023/01/27 04:44:29;;;;;;;24.23;11.20;;;-0.40;99.90;;;;;;5010785;28;20104;-70
2023/01/27 04:46:56;;;;;;;24.90;11.95;;;-0.40;99.90;;;;;;5015357;28;20044;-71
2023/01/27 04:49:25;;;;;;;25.58;11.73;;;-0.40;99.90;;;;;;5009833;28;20054;-71
2023/01/27 04:51:54;;;;;;;22.15;11.20;;;-0.40;99.90;;;;;;4995436;28;20536;-71
2023/01/27 04:54:21;;;;;;;23.70;11.85;;;-0.50;99.90;;;;;;5011016;28;20082;-71
2023/01/27 04:56:58;;;;;;;20.92;11.88;;;-0.50;99.90;;;;;;5001257;28;20095;-71
2023/01/27 04:59:25;;;;;;;21.48;11.45;;;-0.50;99.90;;;;;;5013182;28;20036;-71
2023/01/27 05:01:52;;;;;;;23.38;11.55;;;-0.50;99.90;;;;;;5019890;28;20041;-70
2023/01/27 05:04:20;;;;;;;23.58;12.57;;;-0.50;99.90;;;;;;5010810;28;20046;-72
2023/01/27 05:06:47;;;;;;;24.52;12.10;;;-0.50;99.90;;;;;;5015579;28;20045;-71
2023/01/27 05:09:15;;;;;;;26.20;12.13;;;-0.50;99.90;;;;;;4991946;28;20046;-70
2023/01/27 05:11:42;;;;;;;23.77;11.75;;;-0.40;99.90;;;;;;5013194;28;20049;-70
2023/01/27 05:14:09;;;;;;;23.85;12.18;;;-0.50;99.90;;;;;;5010372;28;20116;-70
2023/01/27 05:16:38;;;;;;;24.50;12.38;;;-0.50;99.90;;;;;;5015729;28;20053;-73
2023/01/27 05:19:06;;;;;;;25.05;11.68;;;-0.50;99.90;;;;;;5010065;28;20106;-71
2023/01/27 05:21:33;;;;;;;25.67;12.15;;;-0.40;99.90;;;;;;5015324;28;20500;-71
2023/01/27 05:24:01;;;;;;;23.98;12.95;;;-0.50;99.90;;;;;;5013629;28;20480;-72
2023/01/27 05:26:28;;;;;;;27.65;12.48;;;-0.50;99.90;;;;;;5016055;28;20050;-71
2023/01/27 05:28:57;;;;;;;20.83;11.20;;;-0.40;99.90;;;;;;5008265;28;20513;-71
2023/01/27 05:31:30;;;;;;;22.95;11.65;;;-0.40;99.90;;;;;;5008571;28;20591;-73
2023/01/27 05:33:59;;;;;;;21.17;11.50;;;-0.40;99.90;;;;;;5010647;28;20037;-72
2023/01/27 05:36:27;;;;;;;19.55;11.45;;;-0.40;99.90;;;;;;5009670;28;20484;-72
2023/01/27 05:38:56;;;;;;;21.98;11.63;;;-0.40;99.90;;;;;;5002504;28;20551;-72
2023/01/27 05:41:24;;;;;;;19.83;11.80;;;-0.50;99.90;;;;;;5017641;28;20119;-73
2023/01/27 05:43:54;;;;;;;20.95;11.45;;;-0.50;99.90;;;;;;5009499;28;20065;-71
2023/01/27 05:46:28;;;;;;;20.15;10.80;;;-0.50;99.90;;;;;;5008147;28;20052;-70
2023/01/27 05:48:59;;;;;;;20.70;11.63;;;-0.50;99.90;;;;;;5005623;28;20038;-72
2023/01/27 05:51:29;;;;;;;19.85;10.80;;;-0.50;99.90;;;;;;5012323;28;20038;-72
2023/01/27 05:53:56;;;;;;;22.83;11.13;;;-0.50;99.90;;;;;;5009819;28;20504;-72
2023/01/27 05:56:25;;;;;;;21.88;10.75;;;-0.50;99.90;;;;;;5008180;28;20453;-72
2023/01/27 05:58:53;;;;;;;21.38;10.82;;;-0.50;99.90;;;;;;5013282;28;20038;-73
2023/01/27 06:01:23;;;;;;;23.05;12.13;;;-0.50;99.90;;;;;;5013761;28;20073;-73
2023/01/27 06:03:50;;;;;;;23.00;11.18;;;-0.60;99.90;;;;;;5009528;28;20048;-73
2023/01/27 06:06:20;;;;;;;18.75;10.63;;;-0.50;99.90;;;;;;5005783;28;20038;-74
2023/01/27 06:08:48;;;;;;;22.95;10.85;;;-0.50;99.90;;;;;;5005770;28;20042;-73
2023/01/27 06:11:16;;;;;;;21.25;10.38;;;-0.50;99.90;;;;;;5008898;28;20041;-71
2023/01/27 06:13:44;;;;;;;22.13;10.43;;;-0.50;99.90;;;;;;5008339;28;20048;-71
2023/01/27 06:16:16;;;;;;;21.85;11.52;;;-0.50;99.90;;;;;;5029327;28;20056;-71
2023/01/27 06:18:43;;;;;;;21.05;11.50;;;-0.50;99.90;;;;;;5015593;28;20067;-71
2023/01/27 06:21:12;;;;;;;18.60;10.65;;;-0.60;99.90;;;;;;5024344;28;20049;-72
2023/01/27 06:23:40;;;;;;;22.52;11.13;;;-0.50;99.90;;;;;;5009293;28;20088;-71
2023/01/27 06:26:10;;;;;;;22.15;11.50;;;-0.50;99.90;;;;;;5006220;28;20049;-72
2023/01/27 06:28:38;;;;;;;30.58;14.38;;;-0.50;99.90;;;;;;5020490;28;20038;-73
2023/01/27 06:31:12;;;;;;;24.05;11.90;;;-0.50;99.90;;;;;;5032211;28;20488;-73
2023/01/27 06:33:40;;;;;;;21.15;11.02;;;-0.50;99.90;;;;;;5014022;28;20045;-71
2023/01/27 06:36:10;;;;;;;23.33;11.93;;;-0.50;99.90;;;;;;5021668;28;20096;-72
2023/01/27 06:38:37;;;;;;;22.45;11.75;;;-0.50;99.90;;;;;;5012817;28;20492;-71
2023/01/27 06:41:05;;;;;;;22.30;11.88;;;-0.50;99.90;;;;;;5011577;28;20076;-71
2023/01/27 06:43:33;;;;;;;22.58;12.80;;;-0.50;99.90;;;;;;5033640;28;20415;-71
2023/01/27 06:46:00;;;;;;;22.55;12.15;;;-0.50;99.90;;;;;;5030986;28;20053;-66
2023/01/27 06:48:31;;;;;;;22.60;12.40;;;-0.50;99.90;;;;;;5033345;28;20041;-66
2023/01/27 06:50:59;;;;;;;21.50;11.70;;;-0.50;99.90;;;;;;5032562;28;20063;-67
2023/01/27 06:53:26;;;;;;;22.58;12.68;;;-0.50;99.90;;;;;;5013856;28;20128;-66
2023/01/27 06:55:55;;;;;;;25.70;12.40;;;-0.50;99.90;;;;;;5008446;28;20042;-67
2023/01/27 06:58:23;;;;;;;21.58;11.25;;;-0.40;99.90;;;;;;5015640;28;20038;-67
2023/01/27 07:00:51;;;;;;;23.10;11.88;;;-0.50;99.90;;;;;;5032947;28;20496;-67
2023/01/27 07:03:19;;;;;;;22.90;10.82;;;-0.50;99.90;;;;;;5026948;28;20042;-67
2023/01/27 07:05:47;;;;;;;20.13;11.77;;;-0.50;99.90;;;;;;5033066;28;20040;-67
2023/01/27 07:08:14;;;;;;;23.58;11.75;;;-0.50;99.90;;;;;;5012586;28;20095;-68
2023/01/27 07:10:41;;;;;;;22.38;11.70;;;-0.40;99.90;;;;;;5013827;28;20484;-66
2023/01/27 07:13:11;;;;;;;24.25;11.95;;;-0.50;99.90;;;;;;5011841;28;20045;-67
2023/01/27 07:15:39;;;;;;;29.52;14.18;;;-0.40;99.90;;;;;;4995708;28;20394;-67
2023/01/27 07:18:06;;;;;;;29.40;13.90;;;-0.40;99.90;;;;;;5011314;28;20037;-66
2023/01/27 07:20:34;;;;;;;24.55;12.18;;;-0.40;99.90;;;;;;5028738;28;20046;-67
2023/01/27 07:23:04;;;;;;;23.20;11.88;;;-0.30;99.90;;;;;;5030673;28;20136;-67
2023/01/27 07:25:34;;;;;;;25.48;11.23;;;-0.30;99.90;;;;;;5015946;28;20044;-67
2023/01/27 07:28:02;;;;;;;22.48;11.18;;;-0.30;99.90;;;;;;5010481;28;20045;-67
2023/01/27 07:30:30;;;;;;;24.45;12.20;;;-0.30;99.90;;;;;;4995545;28;20073;-67
2023/01/27 07:33:10;;;;;;;23.27;11.50;;;-0.30;99.90;;;;;;5011950;28;20080;-68
2023/01/27 07:35:38;;;;;;;25.35;11.32;;;-0.20;99.90;;;;;;5025422;28;20136;-67
2023/01/27 07:38:06;;;;;;;24.92;11.95;;;-0.10;99.90;;;;;;5031074;28;20076;-67
2023/01/27 07:40:34;;;;;;;25.98;12.38;;;-0.10;99.90;;;;;;5018048;28;20046;-67
2023/01/27 07:43:02;;;;;;;20.65;10.80;;;0.00;99.90;;;;;;5010558;28;20384;-67
2023/01/27 07:45:29;;;;;;;23.73;11.65;;;0.00;99.90;;;;;;5010001;28;20104;-66
2023/01/27 07:48:02;;;;;;;23.45;11.45;;;0.00;99.90;;;;;;5031974;28;20037;-66
2023/01/27 07:50:29;;;;;;;19.15;10.80;;;0.00;99.90;;;;;;5019225;28;20046;-66
2023/01/27 07:52:59;;;;;;;22.48;12.00;;;0.00;99.90;;;;;;5010901;28;20045;-65
2023/01/27 07:55:27;;;;;;;24.52;12.52;;;0.00;99.90;;;;;;5029580;28;20128;-67
2023/01/27 07:57:55;;;;;;;20.27;10.60;;;0.10;99.90;;;;;;5029752;28;20376;-67
2023/01/27 08:00:23;;;;;;;23.65;11.48;;;0.20;99.90;;;;;;5026901;28;20048;-67
2023/01/27 08:02:51;;;;;;;23.55;11.82;;;0.20;99.90;;;;;;5023859;28;20180;-67
2023/01/27 08:05:19;;;;;;;23.52;12.02;;;0.20;99.90;;;;;;5014876;28;20470;-67
2023/01/27 08:07:47;;;;;;;28.27;12.25;;;0.10;99.90;;;;;;5031936;28;20069;-67
2023/01/27 08:10:16;;;;;;;24.90;11.63;;;0.20;99.90;;;;;;5025590;28;20065;-67
2023/01/27 08:12:44;;;;;;;20.95;11.50;;;0.30;99.90;;;;;;5012205;28;20446;-67
2023/01/27 08:15:12;;;;;;;24.15;11.95;;;0.30;99.90;;;;;;5011735;28;20053;-67
2023/01/27 08:17:40;;;;;;;22.27;11.93;;;0.40;99.90;;;;;;5011766;28;20060;-67
2023/01/27 08:20:08;;;;;;;21.40;11.30;;;0.40;99.90;;;;;;5022142;28;20041;-67
2023/01/27 08:22:36;;;;;;;26.95;13.27;;;0.50;99.90;;;;;;5030708;28;20475;-67
2023/01/27 08:25:04;;;;;;;23.45;11.52;;;0.50;99.90;;;;;;5013674;28;20045;-67
2023/01/27 08:27:31;;;;;;;23.25;11.77;;;0.50;99.90;;;;;;5018634;28;20052;-67
2023/01/27 08:29:58;;;;;;;22.85;11.02;;;0.60;99.90;;;;;;5027892;28;20041;-66
2023/01/27 08:32:26;;;;;;;22.40;11.13;;;0.70;99.90;;;;;;5029425;28;20111;-67
2023/01/27 08:34:54;;;;;;;19.27;10.63;;;0.80;99.90;;;;;;5012559;28;20524;-66
2023/01/27 08:37:23;;;;;;;20.38;11.70;;;0.90;99.90;;;;;;5030845;28;20080;-68
2023/01/27 08:39:50;;;;;;;20.67;11.02;;;0.90;99.90;;;;;;5030030;28;20523;-65
2023/01/27 08:42:18;;;;;;;20.38;10.45;;;1.00;99.90;;;;;;5030673;28;20038;-68
2023/01/27 08:44:46;;;;;;;20.88;11.27;;;1.00;99.90;;;;;;5030299;28;20567;-66
2023/01/27 08:47:13;;;;;;;22.92;11.57;;;1.00;99.90;;;;;;5031129;28;20051;-67
2023/01/27 08:49:41;;;;;;;20.77;10.63;;;0.90;99.90;;;;;;5017101;28;20049;-66
2023/01/27 08:52:09;;;;;;;19.60;10.80;;;1.00;99.90;;;;;;5009592;28;20390;-67
2023/01/27 08:54:37;;;;;;;19.63;9.98;;;0.90;99.90;;;;;;5014148;28;20144;-66
2023/01/27 08:57:04;;;;;;;21.35;9.60;;;1.10;99.90;;;;;;5009812;28;20065;-66
2023/01/27 08:59:32;;;;;;;19.85;10.40;;;1.10;99.90;;;;;;5019251;28;20041;-66
2023/01/27 09:02:00;;;;;;;21.63;11.50;;;1.10;99.90;;;;;;5029806;28;20045;-67
2023/01/27 09:04:28;;;;;;;18.15;10.35;;;1.10;99.90;;;;;;5017416;28;20034;-67
2023/01/27 09:06:56;;;;;;;21.95;11.50;;;1.10;99.90;;;;;;5029999;28;20101;-67
2023/01/27 09:09:24;;;;;;;27.83;13.57;;;1.10;99.90;;;;;;5027951;28;20061;-67
2023/01/27 09:11:52;;;;;;;20.75;11.10;;;1.20;99.90;;;;;;5012619;28;20435;-66
2023/01/27 09:14:20;;;;;;;19.35;10.98;;;1.10;99.90;;;;;;5010724;28;20053;-65
2023/01/27 09:16:47;;;;;;;18.30;9.85;;;1.00;99.90;;;;;;5012723;28;20415;-67
2023/01/27 09:19:15;;;;;;;19.98;9.82;;;1.10;99.90;;;;;;5029720;28;20207;-66
2023/01/27 09:21:43;;;;;;;19.08;9.48;;;1.10;99.90;;;;;;5027050;28;20603;-66
2023/01/27 09:24:12;;;;;;;16.80;10.00;;;1.30;99.90;;;;;;5013645;28;20108;-66
2023/01/27 09:26:40;;;;;;;21.63;11.45;;;1.10;99.90;;;;;;5010089;28;20049;-66
2023/01/27 09:29:08;;;;;;;18.98;9.85;;;1.20;99.90;;;;;;5011477;28;20037;-66
2023/01/27 09:31:35;;;;;;;21.00;10.77;;;1.40;99.90;;;;;;5009769;28;20123;-66
2023/01/27 09:34:03;;;;;;;19.38;10.68;;;1.40;99.90;;;;;;5015603;28;20500;-66
2023/01/27 09:36:35;;;;;;;19.85;9.48;;;1.40;99.90;;;;;;5030718;28;20092;-66
2023/01/27 09:39:07;;;;;;;19.33;9.60;;;1.30;99.90;;;;;;5028289;28;20045;-66
2023/01/27 09:41:38;;;;;;;;;;;1.30;99.90;;;;;;5029093;28;20045;-66
2023/01/27 09:44:17;;;;;;;29.63;11.38;;;1.40;99.90;;;;;;5021202;28;19925;-67
2023/01/27 09:46:50;;;;;;;37.03;11.85;;;1.40;99.90;;;;;;5011299;28;20041;-67
2023/01/27 09:49:38;;;;;;;22.70;10.40;;;1.40;99.90;;;;;;5009832;28;20461;-67
2023/01/27 09:52:14;;;;;;;63.13;14.82;;;1.50;99.90;;;;;;5031295;28;20046;-67
2023/01/27 09:54:52;;;;;;;83.15;16.30;;;1.70;99.90;;;;;;5016573;28;20076;-68
2023/01/27 09:57:52;;;;;;;51.08;14.18;;;1.80;99.90;;;;;;5033256;28;20474;-67
2023/01/27 10:00:59;;;;;;;19.15;9.63;;;1.80;99.90;;;;;;5032287;28;20049;-67
2023/01/27 10:03:42;;;;;;;20.42;10.38;;;1.90;99.90;;;;;;5033567;28;20053;-68
2023/01/27 10:06:31;;;;;;;17.42;9.25;;;2.00;99.90;;;;;;4995001;28;20121;-67
2023/01/27 10:09:34;;;;;;;16.85;9.27;;;1.90;99.90;;;;;;4998945;28;20046;-66
2023/01/27 10:12:16;;;;;;;21.65;10.88;;;1.90;99.90;;;;;;5013410;28;20497;-65
2023/01/27 10:15:02;;;;;;;27.17;10.82;;;2.00;99.90;;;;;;5019572;28;20136;-67
2023/01/27 10:17:41;;;;;;;18.27;9.88;;;2.00;99.90;;;;;;5017013;28;20057;-67
2023/01/27 10:20:21;;;;;;;19.10;9.88;;;2.10;99.90;;;;;;4994018;28;20046;-68
2023/01/27 10:23:15;;;;;;;20.50;9.93;;;2.30;99.90;;;;;;4997538;28;20501;-67
2023/01/27 10:26:11;;;;;;;18.10;9.68;;;2.20;99.90;;;;;;5032348;28;20041;-67
2023/01/27 10:28:46;;;;;;;18.67;10.02;;;2.10;99.90;;;;;;5005501;28;20048;-67
2023/01/27 10:31:22;;;;;;;18.50;9.75;;;2.10;99.90;;;;;;5033115;28;20116;-66
2023/01/27 10:34:00;;;;;;;22.65;10.50;;;2.20;99.90;;;;;;5026074;28;20456;-66
2023/01/27 10:36:36;;;;;;;17.85;9.75;;;2.30;99.90;;;;;;5013851;28;20069;-66
2023/01/27 10:39:25;;;;;;;18.92;9.35;;;2.40;99.90;;;;;;5012349;28;20363;-66
2023/01/27 10:42:08;;;;;;;25.08;10.25;;;2.50;99.90;;;;;;5012459;28;20583;-67
2023/01/27 10:44:57;;;;;;;18.92;9.30;;;2.40;99.90;;;;;;5013478;28;20034;-66
2023/01/27 10:47:33;;;;;;;23.27;10.75;;;2.30;99.90;;;;;;4995020;28;20493;-66
2023/01/27 10:50:08;;;;;;;15.13;9.00;;;2.30;99.90;;;;;;5016554;28;20038;-67
2023/01/27 10:52:45;;;;;;;18.80;9.75;;;2.20;99.90;;;;;;5012185;28;20060;-66
2023/01/27 10:55:20;;;;;;;16.33;8.95;;;2.10;99.90;;;;;;4994755;28;20049;-67
2023/01/27 10:57:52;;;;;;;17.98;9.07;;;2.10;99.90;;;;;;5015573;28;20613;-67
2023/01/27 11:00:43;;;;;;;17.42;8.95;;;2.20;99.90;;;;;;5014685;28;20376;-67
2023/01/27 11:03:39;;;;;;;16.38;9.38;;;2.20;99.90;;;;;;5011731;28;20042;-67
2023/01/27 11:06:14;;;;;;;16.30;8.30;;;2.20;99.90;;;;;;5025765;28;20128;-66
2023/01/27 11:08:46;;;;;;;16.92;9.40;;;2.10;99.90;;;;;;5032338;28;20047;-67
2023/01/27 11:14:50;;;;;;;18.90;10.15;;;2.20;99.90;;;;;;5017574;28;20053;-66
2023/01/27 11:17:47;;;;;;;16.70;8.52;;;2.20;99.90;;;;;;5009524;28;20133;-66
2023/01/27 11:20:42;;;;;;;16.83;8.60;;;2.30;99.90;;;;;;5013149;28;20492;-67
2023/01/27 11:23:12;;;;;;;16.92;7.97;;;2.30;99.90;;;;;;5012192;28;20161;-66
2023/01/27 11:26:18;;;;;;;16.27;8.05;;;2.30;99.90;;;;;;5016116;28;20116;-66
2023/01/27 11:29:24;;;;;;;17.05;9.30;;;2.20;99.90;;;;;;5017092;28;20045;-66
2023/01/27 11:32:21;;;;;;;15.45;9.18;;;2.00;99.90;;;;;;5030824;28;20396;-68
2023/01/27 11:35:09;;;;;;;16.35;9.18;;;2.00;99.90;;;;;;5012925;28;20053;-69
2023/01/27 11:37:41;;;;;;;18.75;9.27;;;2.00;99.90;;;;;;5014691;28;20057;-68
2023/01/27 11:40:23;;;;;;;18.35;9.82;;;2.00;99.90;;;;;;4998201;28;20054;-68
2023/01/27 11:42:50;;;;;;;16.63;9.10;;;2.00;99.90;;;;;;5018318;28;20071;-69
2023/01/27 11:45:20;;;;;;;16.38;8.60;;;2.00;99.90;;;;;;5030382;28;20099;-68
2023/01/27 11:47:52;;;;;;;18.40;8.25;;;2.00;99.90;;;;;;5024123;28;20511;-69
2023/01/27 11:50:23;;;;;;;16.27;8.35;;;2.00;99.90;;;;;;5010434;28;20571;-68
2023/01/27 11:52:59;;;;;;;15.65;8.07;;;1.90;99.90;;;;;;5011362;28;20057;-68
2023/01/27 11:55:36;;;;;;;15.30;7.47;;;1.90;99.90;;;;;;5011448;28;20096;-68
2023/01/27 11:58:16;;;;;;;19.38;9.27;;;1.90;99.90;;;;;;5010773;28;20041;-68
2023/01/27 12:00:55;;;;;;;17.00;7.90;;;2.00;99.90;;;;;;5006392;28;20271;-68
2023/01/27 12:03:51;;;;;;;15.10;8.48;;;1.90;99.90;;;;;;4990277;28;20038;-67
2023/01/27 12:06:37;;;;;;;18.08;8.27;;;1.90;99.90;;;;;;5009360;28;20492;-68
2023/01/27 12:09:04;;;;;;;15.88;8.80;;;2.10;99.90;;;;;;5017901;28;20030;-68
2023/01/27 12:11:32;;;;;;;15.30;9.07;;;2.20;99.90;;;;;;5019685;28;20516;-67
2023/01/27 12:14:04;;;;;;;13.73;7.57;;;2.30;99.90;;;;;;5030029;28;20476;-67
2023/01/27 12:16:46;;;;;;;15.55;8.20;;;2.30;99.90;;;;;;5023456;28;20454;-69
2023/01/27 12:19:30;;;;;;;18.77;8.63;;;2.20;99.90;;;;;;5031443;28;20403;-67
2023/01/27 12:22:02;;;;;;;13.52;7.18;;;2.20;99.90;;;;;;5028091;28;20034;-68
2023/01/27 12:24:34;;;;;;;13.27;7.80;;;2.20;99.90;;;;;;5012501;28;20045;-68
2023/01/27 12:27:02;;;;;;;;;;;2.20;99.90;;;;;;5029220;28;20041;-67
2023/01/27 12:29:43;;;;;;;15.05;8.68;;;2.20;99.90;;;;;;5011277;28;19921;-68
2023/01/27 12:32:19;;;;;;;16.00;7.93;;;2.20;99.90;;;;;;5008722;28;20500;-67
2023/01/27 12:34:50;;;;;;;14.02;8.98;;;2.20;99.90;;;;;;5024773;28;20700;-68
2023/01/27 12:37:26;;;;;;;15.10;8.10;;;2.30;99.90;;;;;;5011199;28;20056;-68
2023/01/27 12:40:02;;;;;;;12.75;7.25;;;2.30;99.90;;;;;;4992146;28;20056;-68
2023/01/27 12:42:42;;;;;;;13.63;6.90;;;2.20;99.90;;;;;;5008753;28;20180;-68
2023/01/27 12:45:23;;;;;;;13.77;6.47;;;2.30;99.90;;;;;;5024715;28;20037;-68
2023/01/27 12:48:14;;;;;;;12.07;7.35;;;2.30;99.90;;;;;;5030841;28;20063;-68
2023/01/27 12:50:54;;;;;;;17.90;7.30;;;2.20;99.90;;;;;;4989406;28;20052;-68
2023/01/27 12:53:26;;;;;;;12.98;7.38;;;2.20;99.90;;;;;;5005241;28;20282;-68
2023/01/27 12:56:05;;;;;;;17.48;9.32;;;2.30;99.90;;;;;;5011592;28;20061;-68
2023/01/27 12:58:37;;;;;;;13.93;8.07;;;2.20;99.90;;;;;;5010547;28;20050;-69
2023/01/27 13:01:21;;;;;;;14.57;7.32;;;2.10;99.90;;;;;;4971771;28;20169;-68
2023/01/27 13:03:52;;;;;;;14.02;7.75;;;2.10;99.90;;;;;;5001427;28;20461;-68
2023/01/27 13:06:38;;;;;;;11.05;6.70;;;2.10;99.90;;;;;;5027530;28;20484;-68
2023/01/27 13:09:18;;;;;;;14.70;7.55;;;2.10;99.90;;;;;;5010457;28;20121;-68
2023/01/27 13:11:45;;;;;;;17.25;6.97;;;2.10;99.90;;;;;;5009175;28;20100;-69
2023/01/27 13:14:16;;;;;;;13.45;7.28;;;2.20;99.90;;;;;;5009801;28;20270;-68
2023/01/27 13:16:59;;;;;;;12.18;7.10;;;2.20;99.90;;;;;;5028517;28;20045;-68
2023/01/27 13:19:48;;;;;;;16.38;7.05;;;2.30;99.90;;;;;;5029179;28;20037;-69
2023/01/27 13:22:18;;;;;;;12.05;7.28;;;2.30;99.90;;;;;;5010365;28;20046;-68
2023/01/27 13:24:49;;;;;;;12.88;6.82;;;2.30;99.90;;;;;;4973776;28;20520;-69
2023/01/27 13:27:20;;;;;;;12.02;6.45;;;2.30;99.90;;;;;;4975636;28;20056;-68
2023/01/27 13:30:05;;;;;;;12.98;7.25;;;2.40;99.90;;;;;;4974526;28;20053;-68
2023/01/27 13:32:36;;;;;;;11.80;6.82;;;2.40;99.90;;;;;;4987095;28;20054;-69